createdAt,value
2023-02-27T00:00:01.801Z,3.60
2023-02-27T00:02:32.173Z,3.70
2023-02-27T00:05:01.070Z,3.80
2023-02-27T00:07:29.000Z,3.80
2023-02-27T00:09:56.641Z,3.80
2023-02-27T00:12:24.685Z,3.90
2023-02-27T00:14:52.306Z,3.90
2023-02-27T00:17:20.011Z,3.80
2023-02-27T00:19:47.695Z,3.70
2023-02-27T00:24:44.073Z,3.50
2023-02-27T00:27:11.634Z,3.40
2023-02-27T00:29:39.464Z,3.20
2023-02-27T00:34:35.382Z,3.10
2023-02-27T00:37:03.148Z,3.00
2023-02-27T00:39:31.079Z,3.00
2023-02-27T00:41:58.848Z,3.10
2023-02-27T00:44:26.713Z,3.00
2023-02-27T00:46:54.489Z,3.10
2023-02-27T00:49:22.123Z,3.00
2023-02-27T00:51:49.861Z,3.00
2023-02-27T00:54:18.410Z,3.00
2023-02-27T00:56:46.018Z,3.00
2023-02-27T00:59:13.724Z,3.00
2023-02-27T01:01:41.419Z,3.00
2023-02-27T01:04:09.137Z,3.10
2023-02-27T01:06:36.771Z,3.10
2023-02-27T01:09:05.227Z,3.10
2023-02-27T01:11:33.419Z,3.20
2023-02-27T01:14:01.334Z,3.20
2023-02-27T01:16:29.133Z,3.30
2023-02-27T01:18:56.851Z,3.30
2023-02-27T01:21:24.906Z,3.40
2023-02-27T01:23:52.793Z,3.50
2023-02-27T01:26:20.630Z,3.50
2023-02-27T01:28:48.465Z,3.60
2023-02-27T01:31:16.368Z,3.60
2023-02-27T01:33:44.841Z,3.60
2023-02-27T01:36:12.481Z,3.60
2023-02-27T01:38:42.524Z,3.60
2023-02-27T01:41:10.506Z,3.70
2023-02-27T01:44:01.412Z,3.70
2023-02-27T01:46:30.787Z,3.70
2023-02-27T01:49:04.465Z,3.70
2023-02-27T01:51:36.392Z,3.70
2023-02-27T01:54:07.168Z,3.70
2023-02-27T01:56:35.248Z,3.80
2023-02-27T01:59:06.487Z,3.80
2023-02-27T02:01:35.301Z,3.80
2023-02-27T02:04:12.014Z,3.80
2023-02-27T02:06:45.481Z,3.80
2023-02-27T02:09:16.137Z,3.80
2023-02-27T02:11:44.494Z,3.80
2023-02-27T02:14:12.717Z,3.80
2023-02-27T02:16:59.585Z,3.80
2023-02-27T02:19:53.108Z,3.90
2023-02-27T02:22:58.365Z,3.90
2023-02-27T02:25:44.843Z,4.00
2023-02-27T02:28:43.713Z,4.10
2023-02-27T02:31:20.615Z,4.10
2023-02-27T02:33:48.408Z,4.10
2023-02-27T02:36:39.322Z,4.20
2023-02-27T02:39:19.893Z,4.30
2023-02-27T02:42:06.505Z,4.30
2023-02-27T02:45:12.546Z,4.30
2023-02-27T02:47:58.720Z,4.30
2023-02-27T02:50:34.086Z,4.30
2023-02-27T02:53:11.423Z,4.30
2023-02-27T02:55:59.542Z,4.30
2023-02-27T02:58:34.071Z,4.30
2023-02-27T03:01:25.346Z,4.30
2023-02-27T03:04:09.681Z,4.20
2023-02-27T03:06:52.592Z,4.30
2023-02-27T03:09:41.259Z,4.20
2023-02-27T03:12:12.068Z,4.20
2023-02-27T03:14:51.997Z,4.20
2023-02-27T03:17:27.951Z,4.30
2023-02-27T03:20:05.196Z,4.20
2023-02-27T03:22:38.110Z,4.20
2023-02-27T03:25:09.650Z,4.20
2023-02-27T03:28:02.641Z,4.00
2023-02-27T03:30:38.155Z,4.10
2023-02-27T03:33:16.383Z,4.10
2023-02-27T03:35:53.530Z,4.10
2023-02-27T03:38:24.339Z,4.10
2023-02-27T03:40:54.148Z,4.10
2023-02-27T03:44:04.244Z,4.10
2023-02-27T03:46:32.174Z,4.10
2023-02-27T03:49:01.121Z,4.20
2023-02-27T03:51:31.179Z,4.20
2023-02-27T03:54:05.288Z,4.20
2023-02-27T03:56:39.804Z,4.20
2023-02-27T03:59:07.983Z,4.20
2023-02-27T04:01:38.968Z,4.20
2023-02-27T04:04:12.446Z,4.30
2023-02-27T04:07:24.826Z,4.20
2023-02-27T04:10:18.743Z,4.20
2023-02-27T04:13:31.920Z,4.20
2023-02-27T04:16:38.241Z,4.30
2023-02-27T04:19:31.502Z,4.20
2023-02-27T04:22:24.241Z,4.20
2023-02-27T04:25:04.053Z,4.30
2023-02-27T04:27:39.521Z,4.20
2023-02-27T04:30:48.861Z,4.20
2023-02-27T04:33:43.214Z,4.20
2023-02-27T04:36:33.333Z,4.20
2023-02-27T04:39:09.615Z,4.30
2023-02-27T04:41:58.284Z,4.30
2023-02-27T04:44:27.052Z,4.30
2023-02-27T04:46:57.854Z,4.20
2023-02-27T04:49:46.711Z,4.30
2023-02-27T04:52:20.848Z,4.30
2023-02-27T04:55:06.051Z,4.20
2023-02-27T04:57:51.805Z,4.20
2023-02-27T05:00:22.205Z,4.20
2023-02-27T05:03:00.081Z,4.10
2023-02-27T05:05:30.130Z,4.10
2023-02-27T05:08:04.819Z,4.00
2023-02-27T05:10:43.396Z,4.00
2023-02-27T05:13:20.156Z,4.10
2023-02-27T05:15:54.068Z,4.10
2023-02-27T05:18:23.295Z,4.10
2023-02-27T05:23:36.660Z,4.10
2023-02-27T05:26:22.303Z,4.10
2023-02-27T05:29:03.420Z,4.10
2023-02-27T05:31:55.219Z,4.10
2023-02-27T05:34:36.311Z,4.20
2023-02-27T05:37:12.870Z,4.20
2023-02-27T05:39:43.660Z,4.20
2023-02-27T05:42:18.527Z,4.20
2023-02-27T05:44:53.821Z,4.20
2023-02-27T05:47:26.287Z,4.20
2023-02-27T05:50:03.610Z,4.20
2023-02-27T05:52:34.394Z,4.20
2023-02-27T05:55:31.555Z,4.20
2023-02-27T05:58:39.602Z,4.20
2023-02-27T06:01:09.758Z,4.20
2023-02-27T06:03:39.310Z,4.20
2023-02-27T06:06:11.712Z,4.20
2023-02-27T06:11:08.331Z,4.10
2023-02-27T06:13:36.120Z,4.10
2023-02-27T06:16:04.100Z,4.10
2023-02-27T06:18:31.709Z,4.10
2023-02-27T06:20:59.403Z,4.10
2023-02-27T06:23:27.095Z,4.00
2023-02-27T06:25:55.096Z,4.10
2023-02-27T06:28:22.808Z,4.00
2023-02-27T06:30:55.403Z,4.60
2023-02-27T06:33:25.992Z,4.10
2023-02-27T06:35:53.604Z,4.00
2023-02-27T06:38:21.246Z,4.00
2023-02-27T06:40:50.614Z,4.00
2023-02-27T06:43:18.200Z,4.00
2023-02-27T06:48:14.906Z,7.20
2023-02-27T06:50:43.798Z,3.90
2023-02-27T06:53:11.417Z,4.00
2023-02-27T06:55:39.629Z,3.90
2023-02-27T06:58:07.152Z,3.90
2023-02-27T07:00:34.752Z,3.90
2023-02-27T07:03:04.570Z,4.00
2023-02-27T07:05:32.366Z,4.00
2023-02-27T07:08:00.054Z,1.60
2023-02-27T07:10:27.696Z,4.00
2023-02-27T07:12:55.676Z,4.50
2023-02-27T07:15:23.242Z,4.00
2023-02-27T07:17:51.024Z,4.00
2023-02-27T07:20:18.786Z,4.00
2023-02-27T07:22:46.896Z,4.00
2023-02-27T07:25:14.957Z,4.00
2023-02-27T07:27:45.681Z,4.00
2023-02-27T07:30:13.757Z,4.10
2023-02-27T07:32:41.435Z,4.10
2023-02-27T07:35:09.645Z,4.10
2023-02-27T07:37:37.763Z,4.10
2023-02-27T07:40:07.846Z,4.10
2023-02-27T07:42:35.691Z,4.10
2023-02-27T07:45:03.839Z,4.20
2023-02-27T07:47:31.834Z,4.20
2023-02-27T07:49:59.573Z,4.20
2023-02-27T07:52:27.304Z,4.20
2023-02-27T07:54:56.381Z,4.30
2023-02-27T07:57:24.387Z,4.40
2023-02-27T07:59:52.061Z,5.40
2023-02-27T08:02:19.836Z,4.40
2023-02-27T08:04:47.784Z,4.40
2023-02-27T08:07:15.488Z,4.50
2023-02-27T08:09:43.268Z,0.50
2023-02-27T08:12:10.827Z,4.60
2023-02-27T08:14:38.875Z,4.60
2023-02-27T08:17:06.498Z,4.60
2023-02-27T08:19:34.133Z,4.70
2023-02-27T08:22:01.768Z,4.70
2023-02-27T08:24:29.849Z,4.80
2023-02-27T08:29:27.305Z,4.90
2023-02-27T08:31:55.254Z,5.10
2023-02-27T08:34:22.980Z,5.20
2023-02-27T08:36:50.612Z,5.30
2023-02-27T08:39:18.773Z,5.20
2023-02-27T08:41:46.356Z,5.40
2023-02-27T08:44:13.927Z,5.50
2023-02-27T08:46:41.590Z,5.50
2023-02-27T08:49:09.330Z,5.60
2023-02-27T08:51:36.871Z,5.60
2023-02-27T08:54:04.497Z,5.80
2023-02-27T08:56:34.560Z,5.80
2023-02-27T08:59:02.752Z,5.80
2023-02-27T09:01:34.748Z,5.80
2023-02-27T09:04:04.571Z,5.90
2023-02-27T09:06:33.992Z,6.00
2023-02-27T09:09:01.860Z,6.00
2023-02-27T09:11:30.539Z,6.00
2023-02-27T09:13:59.183Z,6.20
2023-02-27T09:16:27.600Z,6.10
2023-02-27T09:18:55.937Z,6.10
2023-02-27T09:23:53.785Z,6.00
2023-02-27T09:26:26.614Z,6.00
2023-02-27T09:29:03.612Z,6.00
2023-02-27T09:31:33.254Z,6.10
2023-02-27T09:34:01.752Z,6.10
2023-02-27T09:36:29.708Z,6.10
2023-02-27T09:38:58.524Z,6.10
2023-02-27T09:41:50.427Z,6.10
2023-02-27T09:44:45.148Z,6.10
2023-02-27T09:47:28.911Z,6.10
2023-02-27T09:50:06.405Z,6.10
2023-02-27T09:52:37.137Z,6.10
2023-02-27T09:55:19.732Z,6.30
2023-02-27T09:58:18.784Z,6.30
2023-02-27T10:00:55.474Z,6.60
2023-02-27T10:03:44.574Z,6.80
2023-02-27T10:06:37.339Z,6.90
2023-02-27T10:09:38.063Z,6.90
2023-02-27T10:12:37.813Z,7.00
2023-02-27T10:15:15.385Z,7.10
2023-02-27T10:17:50.105Z,7.10
2023-02-27T10:20:26.545Z,7.10
2023-02-27T10:22:57.318Z,7.20
2023-02-27T10:25:31.548Z,7.10
2023-02-27T10:28:17.741Z,7.10
2023-02-27T10:30:50.408Z,7.10
2023-02-27T10:33:41.745Z,7.20
2023-02-27T10:36:23.616Z,7.30
2023-02-27T10:39:02.162Z,7.40
2023-02-27T10:41:32.971Z,7.40
2023-02-27T10:44:01.252Z,7.60
2023-02-27T10:46:32.582Z,7.60
2023-02-27T10:49:01.944Z,7.70
2023-02-27T10:51:32.687Z,7.60
2023-02-27T10:54:18.928Z,7.60
2023-02-27T10:56:51.002Z,7.50
2023-02-27T10:59:23.163Z,7.40
2023-02-27T11:01:55.545Z,7.40
2023-02-27T11:04:37.523Z,7.50
2023-02-27T11:07:09.301Z,7.50
2023-02-27T11:09:38.267Z,7.60
2023-02-27T11:12:19.019Z,7.70
2023-02-27T11:14:53.461Z,7.70
2023-02-27T11:17:31.816Z,7.80
2023-02-27T11:20:01.905Z,8.00
2023-02-27T11:22:31.929Z,8.30
2023-02-27T11:25:25.614Z,8.30
2023-02-27T11:28:21.064Z,8.40
2023-02-27T11:31:27.716Z,8.40
2023-02-27T11:33:57.437Z,8.40
2023-02-27T11:36:42.728Z,8.40
2023-02-27T11:39:47.516Z,8.50
2023-02-27T11:42:29.064Z,8.60
2023-02-27T11:46:24.133Z,8.70
2023-02-27T11:48:11.599Z,8.80
2023-02-27T11:50:55.063Z,8.60
2023-02-27T11:53:53.719Z,8.40
2023-02-27T11:56:31.445Z,8.20
2023-02-27T11:59:14.974Z,8.20
2023-02-27T12:02:01.715Z,8.10
2023-02-27T12:04:44.519Z,8.20
2023-02-27T12:07:17.941Z,8.20
2023-02-27T12:09:59.703Z,8.20
2023-02-27T12:12:44.343Z,8.10
2023-02-27T12:15:20.122Z,8.10
2023-02-27T12:17:54.742Z,8.10
2023-02-27T12:20:38.604Z,8.50
2023-02-27T12:23:21.269Z,8.60
2023-02-27T12:25:59.367Z,8.70
2023-02-27T12:28:31.552Z,8.70
2023-02-27T12:31:27.635Z,8.80
2023-02-27T12:34:20.764Z,8.80
2023-02-27T12:36:50.144Z,9.00
2023-02-27T12:39:21.012Z,9.00
2023-02-27T12:42:07.610Z,9.00
2023-02-27T12:45:04.174Z,8.90
2023-02-27T12:48:17.938Z,8.80
2023-02-27T12:51:01.180Z,8.70
2023-02-27T12:54:01.195Z,8.60
2023-02-27T12:57:21.348Z,8.60
2023-02-27T13:00:09.489Z,8.60
2023-02-27T13:02:54.192Z,8.60
2023-02-27T13:05:36.180Z,8.60
2023-02-27T13:08:28.027Z,8.70
2023-02-27T13:11:00.123Z,8.70
2023-02-27T13:13:32.572Z,8.80
2023-02-27T13:16:25.088Z,8.90
2023-02-27T13:19:02.863Z,8.90
2023-02-27T13:21:38.568Z,9.00
2023-02-27T13:24:16.804Z,9.00
2023-02-27T13:26:50.757Z,9.00
2023-02-27T13:29:21.579Z,8.90
2023-02-27T13:31:55.234Z,8.90
2023-02-27T13:34:42.555Z,8.80
2023-02-27T13:37:10.761Z,8.80
2023-02-27T13:39:52.976Z,8.80
2023-02-27T13:42:26.899Z,8.70
2023-02-27T13:44:58.552Z,8.70
2023-02-27T13:47:49.947Z,8.80
2023-02-27T13:50:17.625Z,8.90
2023-02-27T13:52:47.038Z,9.00
2023-02-27T13:55:38.071Z,9.30
2023-02-27T13:58:06.340Z,9.40
2023-02-27T14:00:40.316Z,9.30
2023-02-27T14:03:27.492Z,9.40
2023-02-27T14:05:58.497Z,9.40
2023-02-27T14:08:29.675Z,9.40
2023-02-27T14:11:17.588Z,9.40
2023-02-27T14:13:45.061Z,9.40
2023-02-27T14:16:41.800Z,9.40
2023-02-27T14:19:15.356Z,9.40
2023-02-27T14:22:11.196Z,9.40
2023-02-27T14:24:49.598Z,9.50
2023-02-27T14:27:32.271Z,9.60
2023-02-27T14:30:37.741Z,9.70
2023-02-27T14:33:24.086Z,9.70
2023-02-27T14:36:08.224Z,9.50
2023-02-27T14:38:38.354Z,9.30
2023-02-27T14:41:29.468Z,9.20
2023-02-27T14:43:58.351Z,9.10
2023-02-27T14:46:37.919Z,9.10
2023-02-27T14:49:28.198Z,9.10
2023-02-27T14:51:56.388Z,8.60
2023-02-27T14:54:26.788Z,9.00
2023-02-27T14:57:00.727Z,8.90
2023-02-27T14:59:29.885Z,8.90
2023-02-27T15:02:02.162Z,8.90
2023-02-27T15:04:32.156Z,8.90
2023-02-27T15:07:00.988Z,8.80
2023-02-27T15:09:48.019Z,8.80
2023-02-27T15:12:22.768Z,8.60
2023-02-27T15:15:15.318Z,8.60
2023-02-27T15:17:47.932Z,8.50
2023-02-27T15:20:34.038Z,8.60
2023-02-27T15:23:20.355Z,8.60
2023-02-27T15:25:48.191Z,8.60
2023-02-27T15:29:58.423Z,8.80
2023-02-27T15:32:35.656Z,8.80
2023-02-27T15:35:29.457Z,8.90
2023-02-27T15:37:59.597Z,8.90
2023-02-27T15:40:29.939Z,9.00
2023-02-27T15:42:59.404Z,9.10
2023-02-27T15:45:33.999Z,9.10
2023-02-27T15:48:03.165Z,9.10
2023-02-27T15:50:38.061Z,9.00
2023-02-27T15:53:12.715Z,9.00
2023-02-27T15:55:44.351Z,8.80
2023-02-27T15:58:34.271Z,8.60
2023-02-27T16:01:19.425Z,8.50
2023-02-27T16:03:49.632Z,8.40
2023-02-27T16:06:39.188Z,8.30
2023-02-27T16:09:25.895Z,8.30
2023-02-27T16:12:20.738Z,8.30
2023-02-27T16:14:52.655Z,8.20
2023-02-27T16:17:30.741Z,8.20
2023-02-27T16:20:02.055Z,8.20
2023-02-27T16:22:30.576Z,8.20
2023-02-27T16:25:10.626Z,8.30
2023-02-27T16:27:39.564Z,8.30
2023-02-27T16:30:12.089Z,8.30
2023-02-27T16:32:44.186Z,8.20
2023-02-27T16:35:21.438Z,8.20
2023-02-27T16:37:50.425Z,8.10
2023-02-27T16:40:23.880Z,8.10
2023-02-27T16:42:52.501Z,8.10
2023-02-27T16:45:22.819Z,8.00
2023-02-27T16:47:52.984Z,8.00
2023-02-27T16:50:28.357Z,8.00
2023-02-27T16:55:26.414Z,8.00
2023-02-27T16:57:54.182Z,8.00
2023-02-27T17:00:25.139Z,7.90
2023-02-27T17:02:52.777Z,7.90
2023-02-27T17:05:20.396Z,7.90
2023-02-27T17:07:48.714Z,7.90
2023-02-27T17:10:18.999Z,7.80
2023-02-27T17:12:47.991Z,7.80
2023-02-27T17:15:16.416Z,7.80
2023-02-27T17:17:44.785Z,7.80
2023-02-27T17:20:14.420Z,7.80
2023-02-27T17:22:44.140Z,7.70
2023-02-27T17:25:13.474Z,7.70
2023-02-27T17:27:43.854Z,7.70
2023-02-27T17:35:08.935Z,7.60
2023-02-27T17:40:08.170Z,7.60
2023-02-27T17:42:37.082Z,7.60
2023-02-27T17:45:06.755Z,7.50
2023-02-27T17:47:36.302Z,7.60
2023-02-27T17:50:05.328Z,7.50
2023-02-27T17:52:35.541Z,7.50
2023-02-27T17:55:04.847Z,7.50
2023-02-27T17:57:34.926Z,7.50
2023-02-27T18:00:04.776Z,7.30
2023-02-27T18:02:32.789Z,7.30
2023-02-27T18:05:00.785Z,7.30
2023-02-27T18:07:28.546Z,7.20
2023-02-27T18:09:56.261Z,7.30
2023-02-27T18:12:26.189Z,7.20
2023-02-27T18:14:54.097Z,7.20
2023-02-27T18:17:21.817Z,7.20
2023-02-27T18:19:49.545Z,7.20
2023-02-27T18:22:17.497Z,7.20
2023-02-27T18:24:46.230Z,7.20
2023-02-27T18:27:15.648Z,7.20
2023-02-27T18:29:43.908Z,7.20
2023-02-27T18:32:11.643Z,7.20
2023-02-27T18:34:40.987Z,7.20
2023-02-27T18:39:37.600Z,7.20
2023-02-27T18:44:32.185Z,7.10
2023-02-27T18:46:59.873Z,7.20
2023-02-27T18:49:28.020Z,7.10
2023-02-27T18:51:55.519Z,7.10
2023-02-27T18:54:23.076Z,7.00
2023-02-27T18:56:52.418Z,7.00
2023-02-27T18:59:22.987Z,7.00
2023-02-27T19:01:52.099Z,7.00
2023-02-27T19:06:48.938Z,7.00
2023-02-27T19:09:16.721Z,7.00
2023-02-27T19:11:47.510Z,7.00
2023-02-27T19:14:17.760Z,7.00
2023-02-27T19:16:46.428Z,7.00
2023-02-27T19:19:28.276Z,6.90
2023-02-27T19:21:56.231Z,6.90
2023-02-27T19:24:24.456Z,6.90
2023-02-27T19:26:53.698Z,6.90
2023-02-27T19:29:21.801Z,6.80
2023-02-27T19:31:50.136Z,6.80
2023-02-27T19:34:18.237Z,6.70
2023-02-27T19:36:45.773Z,6.70
2023-02-27T19:39:13.493Z,6.70
2023-02-27T19:41:41.497Z,6.60
2023-02-27T19:44:09.471Z,6.50
2023-02-27T19:46:37.687Z,6.50
2023-02-27T19:49:07.702Z,6.50
2023-02-27T19:51:41.314Z,6.50
2023-02-27T19:54:13.546Z,6.50
2023-02-27T19:56:41.676Z,6.50
2023-02-27T19:59:16.351Z,6.40
2023-02-27T20:01:45.602Z,6.30
2023-02-27T20:04:14.451Z,6.30
2023-02-27T20:09:16.685Z,6.20
2023-02-27T20:11:48.454Z,6.10
2023-02-27T20:14:17.570Z,6.20
2023-02-27T20:16:46.086Z,6.30
2023-02-27T20:19:16.747Z,6.30
2023-02-27T20:21:45.596Z,6.30
2023-02-27T20:24:16.675Z,6.40
2023-02-27T20:26:48.343Z,6.40
2023-02-27T20:29:20.705Z,6.40
2023-02-27T20:31:51.152Z,6.30
2023-02-27T20:34:22.738Z,6.30
2023-02-27T20:36:51.749Z,6.30
2023-02-27T20:39:20.270Z,6.30
2023-02-27T20:41:48.489Z,6.20
2023-02-27T20:44:16.316Z,6.10
2023-02-27T20:46:44.547Z,6.30
2023-02-27T20:49:15.623Z,6.20
2023-02-27T20:51:44.580Z,6.30
2023-02-27T20:54:16.472Z,6.30
2023-02-27T20:56:44.165Z,6.30
2023-02-27T20:59:16.847Z,6.30
2023-02-27T21:01:51.884Z,6.30
2023-02-27T21:04:48.311Z,6.20
2023-02-27T21:07:18.750Z,6.20
2023-02-27T21:09:46.910Z,6.10
2023-02-27T21:12:14.779Z,6.10
2023-02-27T21:14:45.508Z,6.10
2023-02-27T21:17:14.338Z,6.10
2023-02-27T21:19:42.199Z,6.00
2023-02-27T21:22:11.528Z,6.00
2023-02-27T21:27:07.992Z,6.00
2023-02-27T21:29:36.365Z,5.90
2023-02-27T21:32:05.690Z,5.90
2023-02-27T21:34:33.692Z,5.90
2023-02-27T21:37:04.137Z,5.80
2023-02-27T21:39:31.960Z,5.80
2023-02-27T21:44:29.767Z,5.80
2023-02-27T21:47:00.785Z,5.80
2023-02-27T21:49:29.488Z,5.90
2023-02-27T21:51:57.463Z,5.90
2023-02-27T21:54:25.098Z,5.90
2023-02-27T21:59:21.691Z,6.00
2023-02-27T22:01:49.890Z,6.10
2023-02-27T22:04:20.311Z,6.10
2023-02-27T22:06:49.683Z,6.10
2023-02-27T22:09:18.193Z,6.10
2023-02-27T22:11:45.910Z,6.20
2023-02-27T22:14:14.065Z,6.10
2023-02-27T22:16:55.186Z,7.00
2023-02-27T22:19:23.535Z,6.10
2023-02-27T22:21:52.654Z,6.10
2023-02-27T22:24:20.780Z,6.10
2023-02-27T22:26:49.633Z,6.10
2023-02-27T22:29:17.480Z,6.10
2023-02-27T22:34:18.539Z,6.20
2023-02-27T22:36:48.779Z,6.30
2023-02-27T22:39:16.484Z,6.20
2023-02-27T22:41:46.145Z,8.90
2023-02-27T22:44:15.894Z,6.10
2023-02-27T22:46:47.106Z,6.10
2023-02-27T22:49:21.603Z,6.10
2023-02-27T22:51:51.608Z,6.10
2023-02-27T22:54:23.901Z,6.10
2023-02-27T22:56:53.743Z,6.10
2023-02-27T22:59:23.084Z,6.00
2023-02-27T23:01:51.405Z,6.00
2023-02-27T23:04:19.552Z,6.00
2023-02-27T23:06:47.613Z,6.00
2023-02-27T23:09:21.524Z,6.00
2023-02-27T23:14:24.084Z,6.00
2023-02-27T23:16:52.006Z,6.00
2023-02-27T23:19:21.038Z,5.90
2023-02-27T23:21:49.703Z,5.90
2023-02-27T23:24:22.546Z,5.80
2023-02-27T23:26:52.845Z,5.90
2023-02-27T23:29:22.010Z,5.90
2023-02-27T23:31:50.352Z,6.00
2023-02-27T23:34:18.645Z,5.90
2023-02-27T23:36:46.949Z,5.90
2023-02-27T23:39:14.845Z,5.90
2023-02-27T23:41:43.224Z,5.90
2023-02-27T23:44:11.459Z,5.90
2023-02-27T23:46:40.946Z,5.90
2023-02-27T23:49:09.168Z,4.90
2023-02-27T23:51:37.473Z,5.80
2023-02-27T23:54:05.732Z,5.80
2023-02-27T23:56:34.587Z,5.80
2023-02-27T23:59:06.131Z,5.80
